Anacoco, Louisiana
Current Conditions -  °F | °C
As of 1:56 AM on Monday 24 Nov 2014 (Local Time) from KAQV Reporting Station
Clear Clear  
Wind Chill: 59°   Ceiling: Unl
Heat Index: 59°   Visibility: 10mi
Dew Point: 49°   Wind: 6mph
Humidity: 69%   Direction: NA
Pressure: 29.73"   Gusts: NA
Location:  31.25°N, 93.34°W
Report Text: KAQV 240756Z AUTO VRB05KT 10SM CLR 15/09 A2973 RMK AO2 SLP066 T01500094 PNO $
Loading
Personal Weather Stations






























Interactive Weather Map New forecast layout! Learn more

10-Day Weather Forecast

Advertisements
Track Severe Weather on mobile